createdAt,value
2023-03-17T00:01:54.491Z,81.71
2023-03-17T00:07:41.491Z,82.10
2023-03-17T00:10:25.790Z,81.79
2023-03-17T00:12:55.322Z,81.87
2023-03-17T00:15:26.681Z,81.43
2023-03-17T00:17:56.197Z,81.75
2023-03-17T00:20:29.042Z,81.79
2023-03-17T00:23:01.467Z,81.44
2023-03-17T00:25:33.032Z,80.68
2023-03-17T00:28:03.751Z,79.57
2023-03-17T00:30:31.814Z,81.18
2023-03-17T00:33:00.232Z,81.62
2023-03-17T00:35:29.675Z,81.72
2023-03-17T00:37:57.965Z,81.31
2023-03-17T00:40:32.698Z,81.59
2023-03-17T00:43:03.244Z,81.87
2023-03-17T00:45:31.009Z,81.57
2023-03-17T00:47:59.061Z,81.31
2023-03-17T00:50:28.784Z,81.31
2023-03-17T00:52:58.023Z,81.59
2023-03-17T00:55:26.854Z,82.60
2023-03-17T00:57:55.190Z,82.80
2023-03-17T01:00:27.084Z,81.99
2023-03-17T01:02:56.702Z,82.08
2023-03-17T01:08:45.946Z,80.45
2023-03-17T01:11:17.843Z,82.43
2023-03-17T01:13:47.099Z,81.94
2023-03-17T01:16:14.795Z,82.71
2023-03-17T01:18:41.671Z,82.19
2023-03-17T01:21:08.048Z,82.18
2023-03-17T01:23:35.014Z,82.54
2023-03-17T01:26:01.394Z,82.48
2023-03-17T01:28:28.213Z,82.28
2023-03-17T01:30:54.824Z,82.39
2023-03-17T01:33:21.625Z,82.84
2023-03-17T01:35:50.010Z,83.28
2023-03-17T01:38:16.994Z,83.18
2023-03-17T01:40:49.004Z,83.37
2023-03-17T01:43:17.776Z,82.78
2023-03-17T01:46:22.288Z,81.14
2023-03-17T01:49:10.827Z,80.60
2023-03-17T01:51:49.390Z,81.36
2023-03-17T01:54:24.977Z,81.77
2023-03-17T01:56:56.806Z,81.59
2023-03-17T01:59:28.034Z,84.93
2023-03-17T02:02:01.709Z,84.06
2023-03-17T02:04:28.994Z,82.33
2023-03-17T02:06:58.894Z,83.08
2023-03-17T02:09:26.861Z,83.69
2023-03-17T02:11:54.935Z,83.36
2023-03-17T02:14:21.558Z,83.07
2023-03-17T02:16:48.692Z,84.38
2023-03-17T02:19:16.291Z,84.01
2023-03-17T02:21:48.724Z,83.23
2023-03-17T02:24:40.883Z,82.82
2023-03-17T02:27:23.959Z,82.47
2023-03-17T02:29:53.033Z,81.78
2023-03-17T02:32:19.752Z,80.96
2023-03-17T02:34:47.954Z,81.88
2023-03-17T02:37:15.386Z,82.02
2023-03-17T02:39:41.963Z,82.83
2023-03-17T02:42:09.608Z,83.44
2023-03-17T02:44:36.225Z,83.91
2023-03-17T02:47:02.740Z,82.77
2023-03-17T02:49:31.141Z,83.47
2023-03-17T02:51:57.516Z,82.69
2023-03-17T02:54:24.001Z,82.53
2023-03-17T02:56:50.511Z,82.08
2023-03-17T02:59:16.955Z,82.35
2023-03-17T03:01:43.517Z,83.02
2023-03-17T03:07:43.606Z,82.28
2023-03-17T03:10:11.804Z,82.70
2023-03-17T03:12:40.252Z,82.86
2023-03-17T03:15:09.718Z,82.53
2023-03-17T03:17:37.589Z,82.67
2023-03-17T03:20:06.191Z,82.68
2023-03-17T03:22:34.372Z,82.76
2023-03-17T03:25:02.297Z,82.17
2023-03-17T03:27:30.247Z,82.11
2023-03-17T03:29:58.084Z,82.24
2023-03-17T03:32:26.096Z,82.16
2023-03-17T03:34:56.945Z,81.05
2023-03-17T03:37:24.717Z,82.09
2023-03-17T03:39:53.038Z,82.59
2023-03-17T03:42:20.851Z,83.72
2023-03-17T03:44:48.877Z,82.84
2023-03-17T03:47:16.814Z,83.02
2023-03-17T03:49:44.639Z,82.93
2023-03-17T03:52:14.485Z,82.45
2023-03-17T03:54:42.272Z,82.55
2023-03-17T03:57:10.320Z,82.41
2023-03-17T03:59:38.161Z,82.42
2023-03-17T04:02:09.324Z,82.34
2023-03-17T04:07:28.918Z,81.84
2023-03-17T04:09:57.025Z,80.84
2023-03-17T04:12:24.777Z,80.79
2023-03-17T04:14:52.582Z,80.80
2023-03-17T04:17:20.374Z,81.30
2023-03-17T04:19:48.170Z,81.23
2023-03-17T04:22:16.431Z,81.88
2023-03-17T04:24:44.298Z,83.31
2023-03-17T04:27:12.272Z,83.58
2023-03-17T04:29:40.164Z,82.69
2023-03-17T04:32:08.400Z,82.34
2023-03-17T04:34:36.222Z,84.24
2023-03-17T04:37:04.568Z,83.47
2023-03-17T04:39:32.355Z,83.37
2023-03-17T04:42:00.236Z,83.08
2023-03-17T04:44:28.324Z,81.91
2023-03-17T04:46:56.156Z,82.55
2023-03-17T04:49:24.523Z,83.25
2023-03-17T04:51:52.285Z,82.20
2023-03-17T04:54:20.589Z,81.93
2023-03-17T04:56:48.557Z,81.80
2023-03-17T04:59:16.398Z,82.35
2023-03-17T05:01:44.256Z,83.67
2023-03-17T05:04:16.737Z,84.61
2023-03-17T05:06:49.844Z,83.62
2023-03-17T05:09:17.866Z,84.94
2023-03-17T05:11:45.637Z,85.13
2023-03-17T05:14:14.581Z,85.07
2023-03-17T05:16:42.392Z,84.88
2023-03-17T05:19:10.219Z,85.42
2023-03-17T05:21:37.988Z,85.26
2023-03-17T05:24:06.506Z,84.08
2023-03-17T05:26:34.766Z,83.88
2023-03-17T05:29:02.603Z,83.15
2023-03-17T05:31:31.603Z,84.85
2023-03-17T05:34:00.648Z,82.74
2023-03-17T05:36:28.582Z,82.52
2023-03-17T05:38:56.468Z,85.75
2023-03-17T05:41:24.355Z,84.92
2023-03-17T05:43:52.476Z,82.77
2023-03-17T05:46:20.691Z,83.50
2023-03-17T05:48:48.924Z,82.86
2023-03-17T05:51:16.749Z,82.56
2023-03-17T05:53:44.577Z,82.85
2023-03-17T05:56:13.464Z,82.89
2023-03-17T05:58:41.707Z,82.86
2023-03-17T06:01:09.614Z,83.08
2023-03-17T06:03:38.672Z,83.20
2023-03-17T06:06:06.917Z,84.19
2023-03-17T06:08:34.745Z,82.07
2023-03-17T06:11:02.530Z,83.29
2023-03-17T06:13:31.100Z,82.29
2023-03-17T06:15:58.864Z,82.96
2023-03-17T06:18:27.080Z,82.00
2023-03-17T06:20:55.274Z,82.09
2023-03-17T06:23:24.163Z,81.78
2023-03-17T06:25:52.161Z,81.77
2023-03-17T06:28:20.034Z,81.13
2023-03-17T06:30:48.037Z,81.05
2023-03-17T06:33:18.280Z,81.03
2023-03-17T06:35:46.116Z,81.07
2023-03-17T06:38:13.921Z,80.81
2023-03-17T06:40:41.981Z,80.68
2023-03-17T06:43:09.872Z,80.52
2023-03-17T06:45:38.497Z,80.40
2023-03-17T06:48:07.101Z,80.01
2023-03-17T06:50:34.879Z,80.17
2023-03-17T06:53:02.903Z,79.83
2023-03-17T06:55:31.478Z,80.08
2023-03-17T06:58:03.234Z,79.71
2023-03-17T07:00:31.125Z,79.36
2023-03-17T07:02:58.903Z,79.24
2023-03-17T07:05:26.862Z,78.61
2023-03-17T07:07:54.586Z,78.56
2023-03-17T07:10:23.139Z,77.73
2023-03-17T07:12:50.997Z,77.50
2023-03-17T07:15:18.913Z,77.39
2023-03-17T07:17:49.262Z,76.72
2023-03-17T07:20:18.254Z,76.92
2023-03-17T07:22:46.572Z,75.98
2023-03-17T07:25:14.416Z,75.11
2023-03-17T07:27:42.192Z,74.96
2023-03-17T07:30:11.205Z,74.39
2023-03-17T07:32:39.461Z,73.64
2023-03-17T07:35:08.213Z,73.32
2023-03-17T07:37:36.443Z,72.18
2023-03-17T07:40:05.164Z,71.65
2023-03-17T07:42:34.109Z,70.00
2023-03-17T07:45:03.937Z,69.77
2023-03-17T07:47:31.744Z,68.99
2023-03-17T07:49:59.451Z,68.05
2023-03-17T07:52:27.178Z,67.79
2023-03-17T07:54:55.899Z,67.76
2023-03-17T07:57:24.137Z,67.11
2023-03-17T07:59:51.914Z,66.62
2023-03-17T08:02:19.748Z,65.37
2023-03-17T08:04:47.713Z,65.25
2023-03-17T08:07:15.579Z,65.18
2023-03-17T08:09:43.491Z,64.13
2023-03-17T08:12:11.810Z,64.04
2023-03-17T08:14:39.654Z,63.36
2023-03-17T08:17:07.724Z,63.28
2023-03-17T08:19:35.705Z,61.70
2023-03-17T08:22:03.504Z,60.52
2023-03-17T08:24:31.235Z,60.74
2023-03-17T08:27:00.825Z,58.17
2023-03-17T08:29:29.282Z,58.45
2023-03-17T08:31:57.498Z,57.21
2023-03-17T08:34:26.364Z,57.83
2023-03-17T08:36:54.261Z,56.38
2023-03-17T08:39:22.215Z,55.24
2023-03-17T08:41:50.990Z,54.31
2023-03-17T08:44:19.991Z,52.83
2023-03-17T08:46:49.621Z,52.20
2023-03-17T08:49:17.806Z,51.02
2023-03-17T08:51:45.502Z,50.59
2023-03-17T08:54:14.034Z,50.59
2023-03-17T08:56:42.241Z,50.97
2023-03-17T08:59:11.032Z,50.30
2023-03-17T09:01:40.287Z,48.89
2023-03-17T09:04:08.943Z,48.59
2023-03-17T09:06:38.721Z,47.38
2023-03-17T09:09:06.970Z,47.09
2023-03-17T09:11:34.968Z,46.00
2023-03-17T09:14:03.246Z,46.34
2023-03-17T09:16:34.112Z,46.45
2023-03-17T09:19:02.053Z,45.23
2023-03-17T09:21:29.771Z,44.41
2023-03-17T09:23:58.003Z,43.37
2023-03-17T09:26:26.467Z,43.52
2023-03-17T09:28:54.525Z,42.62
2023-03-17T09:31:22.321Z,41.50
2023-03-17T09:33:52.348Z,42.23
2023-03-17T09:36:20.606Z,41.31
2023-03-17T09:38:48.309Z,41.46
2023-03-17T09:41:48.024Z,40.80
2023-03-17T09:44:34.403Z,39.63
2023-03-17T09:47:26.158Z,39.64
2023-03-17T09:49:59.617Z,39.26
2023-03-17T09:52:30.312Z,39.52
2023-03-17T09:54:59.053Z,40.19
2023-03-17T09:57:34.404Z,40.13
2023-03-17T10:00:15.012Z,39.46
2023-03-17T10:02:43.263Z,39.03
2023-03-17T10:05:20.591Z,38.16
2023-03-17T10:07:59.849Z,37.97
2023-03-17T10:10:36.877Z,38.38
2023-03-17T10:13:14.102Z,38.09
2023-03-17T10:15:54.155Z,37.64
2023-03-17T10:18:26.431Z,37.59
2023-03-17T10:20:59.481Z,38.06
2023-03-17T10:23:33.086Z,37.91
2023-03-17T10:26:08.145Z,37.04
2023-03-17T10:28:38.741Z,36.19
2023-03-17T10:31:18.232Z,36.14
2023-03-17T10:33:52.486Z,36.17
2023-03-17T10:36:38.013Z,36.21
2023-03-17T10:39:07.767Z,35.63
2023-03-17T10:41:41.578Z,35.77
2023-03-17T10:44:21.350Z,35.39
2023-03-17T10:46:56.273Z,35.82
2023-03-17T10:49:26.087Z,36.47
2023-03-17T10:51:55.552Z,35.86
2023-03-17T10:54:26.371Z,35.43
2023-03-17T10:57:03.605Z,34.61
2023-03-17T10:59:37.623Z,35.00
2023-03-17T11:02:23.291Z,35.23
2023-03-17T11:04:55.119Z,35.31
2023-03-17T11:07:40.515Z,35.94
2023-03-17T11:10:19.499Z,37.34
2023-03-17T11:12:54.398Z,37.67
2023-03-17T11:15:22.737Z,38.27
2023-03-17T11:17:59.516Z,37.89
2023-03-17T11:20:47.697Z,37.26
2023-03-17T11:23:38.641Z,36.86
2023-03-17T11:26:18.949Z,37.88
2023-03-17T11:29:32.603Z,38.30
2023-03-17T11:32:18.115Z,37.79
2023-03-17T11:35:17.493Z,37.81
2023-03-17T11:37:48.164Z,37.85
2023-03-17T11:40:29.305Z,37.35
2023-03-17T11:43:14.546Z,37.78
2023-03-17T12:02:39.021Z,37.01
2023-03-17T12:05:29.918Z,36.44
2023-03-17T12:08:20.824Z,37.26
2023-03-17T12:10:54.637Z,38.14
2023-03-17T12:13:46.624Z,37.89
2023-03-17T12:16:41.417Z,38.12
2023-03-17T12:19:33.709Z,38.37
2023-03-17T12:22:07.721Z,38.65
2023-03-17T12:24:41.679Z,38.87
2023-03-17T12:27:13.354Z,38.66
2023-03-17T12:29:52.573Z,38.98
2023-03-17T12:32:26.381Z,39.17
2023-03-17T12:35:02.394Z,39.32
2023-03-17T12:37:30.216Z,39.17
2023-03-17T12:40:06.863Z,39.15
2023-03-17T12:42:52.311Z,39.70
2023-03-17T12:45:26.397Z,40.21
2023-03-17T12:48:25.006Z,40.53
2023-03-17T12:51:06.126Z,40.50
2023-03-17T12:53:37.865Z,40.84
2023-03-17T12:56:17.014Z,40.63
2023-03-17T12:58:48.535Z,40.58
2023-03-17T13:01:34.227Z,40.88
2023-03-17T13:04:26.959Z,41.18
2023-03-17T13:06:59.777Z,41.14
2023-03-17T13:09:30.306Z,41.22
2023-03-17T13:12:01.867Z,40.99
2023-03-17T13:14:39.062Z,41.08
2023-03-17T13:17:19.761Z,41.51
2023-03-17T13:19:55.384Z,41.48
2023-03-17T13:22:22.999Z,41.39
2023-03-17T13:24:53.150Z,41.47
2023-03-17T13:27:32.814Z,41.32
2023-03-17T13:30:25.868Z,41.64
2023-03-17T13:33:19.788Z,41.83
2023-03-17T13:35:54.150Z,41.89
2023-03-17T13:38:40.200Z,41.19
2023-03-17T13:41:42.964Z,41.60
2023-03-17T13:44:11.613Z,41.03
2023-03-17T13:46:40.016Z,41.32
2023-03-17T13:49:21.240Z,41.41
2023-03-17T13:52:00.372Z,40.63
2023-03-17T13:54:28.398Z,40.84
2023-03-17T13:57:00.105Z,40.98
2023-03-17T13:59:40.227Z,40.99
2023-03-17T14:02:17.676Z,40.96
2023-03-17T14:04:58.193Z,40.97
2023-03-17T14:07:31.469Z,41.21
2023-03-17T14:10:02.757Z,41.56
2023-03-17T14:12:43.138Z,42.13
2023-03-17T14:15:33.218Z,42.48
2023-03-17T14:18:11.058Z,42.44
2023-03-17T14:20:38.851Z,42.20
2023-03-17T14:23:06.625Z,42.29
2023-03-17T14:25:37.743Z,41.90
2023-03-17T14:28:14.030Z,41.96
2023-03-17T14:30:51.906Z,42.15
2023-03-17T14:33:27.757Z,41.93
2023-03-17T14:36:01.441Z,41.98
2023-03-17T14:38:32.801Z,42.28
2023-03-17T14:41:07.716Z,41.89
2023-03-17T14:43:36.572Z,41.84
2023-03-17T14:46:18.592Z,41.88
2023-03-17T14:48:49.642Z,42.14
2023-03-17T14:51:23.000Z,41.94
2023-03-17T14:53:52.966Z,41.66
2023-03-17T14:56:27.058Z,41.00
2023-03-17T14:58:54.772Z,40.64
2023-03-17T15:01:38.570Z,40.75
2023-03-17T15:04:13.197Z,40.42
2023-03-17T15:06:54.790Z,40.60
2023-03-17T15:09:31.570Z,40.39
2023-03-17T15:12:21.976Z,40.10
2023-03-17T15:14:53.782Z,40.47
2023-03-17T15:17:36.628Z,40.62
2023-03-17T15:20:16.600Z,40.70
2023-03-17T15:22:49.418Z,40.40
2023-03-17T15:25:23.505Z,40.54
2023-03-17T15:27:51.946Z,40.27
2023-03-17T15:30:21.077Z,40.39
2023-03-17T15:33:01.826Z,40.92
2023-03-17T15:35:29.693Z,40.53
2023-03-17T15:37:57.908Z,40.91
2023-03-17T15:40:25.815Z,40.97
2023-03-17T15:42:53.621Z,40.99
2023-03-17T15:45:21.383Z,40.76
2023-03-17T15:47:49.375Z,40.92
2023-03-17T15:50:24.091Z,41.06
2023-03-17T15:53:01.310Z,42.18
2023-03-17T15:55:31.110Z,42.07
2023-03-17T15:57:59.338Z,42.18
2023-03-17T16:00:30.092Z,42.27
2023-03-17T16:03:01.407Z,42.44
2023-03-17T16:05:32.532Z,42.61
2023-03-17T16:08:00.744Z,43.02
2023-03-17T16:10:31.900Z,43.52
2023-03-17T16:12:59.910Z,43.69
2023-03-17T16:15:31.474Z,43.84
2023-03-17T16:18:02.515Z,43.87
2023-03-17T16:20:40.114Z,44.07
2023-03-17T16:23:14.874Z,44.35
2023-03-17T16:25:43.679Z,44.27
2023-03-17T16:28:22.505Z,44.71
2023-03-17T16:30:52.187Z,45.01
2023-03-17T16:33:53.501Z,45.19
2023-03-17T16:36:23.320Z,45.51
2023-03-17T16:38:52.143Z,45.52
2023-03-17T16:41:28.179Z,45.72
2023-03-17T16:44:01.555Z,46.23
2023-03-17T16:46:35.206Z,46.69
2023-03-17T16:49:04.773Z,46.76
2023-03-17T16:51:32.642Z,47.02
2023-03-17T16:54:00.562Z,46.76
2023-03-17T16:56:28.777Z,47.21
2023-03-17T16:58:56.647Z,47.40
2023-03-17T17:01:27.067Z,47.80
2023-03-17T17:03:55.433Z,47.91
2023-03-17T17:06:24.150Z,48.16
2023-03-17T17:08:52.350Z,48.30
2023-03-17T17:11:20.834Z,48.39
2023-03-17T17:13:49.967Z,48.31
2023-03-17T17:16:23.454Z,48.77
2023-03-17T17:18:51.453Z,49.37
2023-03-17T17:21:19.293Z,49.53
2023-03-17T17:23:47.464Z,49.26
2023-03-17T17:26:15.414Z,49.58
2023-03-17T17:28:43.280Z,49.64
2023-03-17T17:31:11.364Z,49.48
2023-03-17T17:33:40.018Z,49.88
2023-03-17T17:36:13.773Z,49.97
2023-03-17T17:38:42.343Z,50.02
2023-03-17T17:41:11.997Z,50.38
2023-03-17T17:43:40.099Z,50.64
2023-03-17T17:46:15.661Z,50.74
2023-03-17T17:48:43.665Z,50.90
2023-03-17T17:51:11.604Z,51.12
2023-03-17T17:53:40.385Z,51.67
2023-03-17T17:56:11.900Z,51.81
2023-03-17T17:58:39.869Z,52.29
2023-03-17T18:01:07.647Z,52.54
2023-03-17T18:03:35.944Z,52.84
2023-03-17T18:06:05.613Z,52.75
2023-03-17T18:08:33.441Z,52.71
2023-03-17T18:11:01.346Z,53.59
2023-03-17T18:13:29.146Z,53.54
2023-03-17T18:15:57.121Z,53.37
2023-03-17T18:18:25.011Z,53.60
2023-03-17T18:20:54.375Z,53.67
2023-03-17T18:23:23.092Z,53.81
2023-03-17T18:25:52.192Z,54.21
2023-03-17T18:28:19.997Z,54.17
2023-03-17T18:30:48.059Z,54.28
2023-03-17T18:33:18.509Z,53.99
2023-03-17T18:35:48.955Z,53.97
2023-03-17T18:38:17.064Z,54.00
2023-03-17T18:40:45.091Z,54.45
2023-03-17T18:43:13.367Z,54.76
2023-03-17T18:45:41.225Z,55.25
2023-03-17T18:48:09.045Z,54.92
2023-03-17T18:50:37.529Z,55.03
2023-03-17T18:53:05.624Z,55.02
2023-03-17T18:55:33.396Z,55.35
2023-03-17T18:58:01.429Z,55.36
2023-03-17T19:00:29.790Z,55.29
2023-03-17T19:02:57.844Z,55.59
2023-03-17T19:05:26.053Z,55.54
2023-03-17T19:07:54.088Z,55.44
2023-03-17T19:10:21.991Z,55.72
2023-03-17T19:12:50.838Z,55.85
2023-03-17T19:15:19.638Z,56.18
2023-03-17T19:17:47.988Z,56.18
2023-03-17T19:20:15.930Z,56.02
2023-03-17T19:22:43.750Z,56.08
2023-03-17T19:25:11.989Z,55.90
2023-03-17T19:27:40.158Z,56.30
2023-03-17T19:30:08.987Z,56.29
2023-03-17T19:32:36.864Z,56.45
2023-03-17T19:35:05.840Z,56.78
2023-03-17T19:37:34.072Z,56.93
2023-03-17T19:40:02.133Z,56.77
2023-03-17T19:42:29.858Z,56.85
2023-03-17T19:44:57.816Z,56.79
2023-03-17T19:47:25.794Z,57.02
2023-03-17T19:49:53.962Z,56.92
2023-03-17T19:52:22.355Z,57.03
2023-03-17T19:54:50.137Z,57.50
2023-03-17T19:57:20.748Z,57.53
2023-03-17T19:59:48.559Z,57.65
2023-03-17T20:02:16.993Z,57.65
2023-03-17T20:04:45.146Z,57.66
2023-03-17T20:07:13.070Z,58.00
2023-03-17T20:09:42.252Z,57.72
2023-03-17T20:17:27.965Z,57.73
2023-03-17T20:19:55.752Z,57.51
2023-03-17T20:22:23.451Z,57.36
2023-03-17T20:24:51.648Z,57.75
2023-03-17T20:27:19.784Z,57.74
2023-03-17T20:29:48.538Z,57.51
2023-03-17T20:32:17.255Z,57.73
2023-03-17T20:34:45.353Z,57.70
2023-03-17T20:37:14.278Z,57.49
2023-03-17T20:39:42.436Z,57.87
2023-03-17T20:42:14.472Z,58.10
2023-03-17T20:44:42.951Z,58.05
2023-03-17T20:47:11.404Z,58.15
2023-03-17T20:49:39.348Z,58.02
2023-03-17T20:52:08.651Z,58.19
2023-03-17T20:54:36.415Z,58.31
2023-03-17T20:57:04.873Z,58.21
2023-03-17T20:59:34.425Z,58.31
2023-03-17T21:02:02.504Z,58.17
2023-03-17T21:04:30.467Z,58.36
2023-03-17T21:06:58.284Z,58.70
2023-03-17T21:09:26.597Z,58.50
2023-03-17T21:11:54.312Z,58.82
2023-03-17T21:14:22.071Z,58.86
2023-03-17T21:16:50.550Z,58.78
2023-03-17T21:19:19.694Z,58.58
2023-03-17T21:21:47.533Z,59.09
2023-03-17T21:24:25.825Z,58.92
2023-03-17T21:26:53.708Z,58.58
2023-03-17T21:29:22.061Z,58.88
2023-03-17T21:31:50.132Z,58.91
2023-03-17T21:34:17.979Z,58.92
2023-03-17T21:36:46.049Z,58.67
2023-03-17T21:39:14.120Z,58.55
2023-03-17T21:41:43.546Z,58.75
2023-03-17T21:44:13.387Z,58.68
2023-03-17T21:46:42.176Z,58.65
2023-03-17T21:49:10.029Z,58.61
2023-03-17T21:51:37.798Z,58.62
2023-03-17T21:54:05.648Z,58.71
2023-03-17T21:56:33.588Z,58.48
2023-03-17T21:59:01.346Z,58.75
2023-03-17T22:01:29.370Z,58.22
2023-03-17T22:03:57.754Z,58.24
2023-03-17T22:06:27.434Z,58.14
2023-03-17T22:08:55.855Z,58.69
2023-03-17T22:11:24.038Z,58.70
2023-03-17T22:13:52.337Z,58.37
2023-03-17T22:16:20.429Z,58.87
2023-03-17T22:18:48.791Z,58.75
2023-03-17T22:21:16.519Z,58.43
2023-03-17T22:23:44.557Z,58.54
2023-03-17T22:26:22.865Z,58.78
2023-03-17T22:28:50.684Z,58.76
2023-03-17T22:31:27.258Z,58.63
2023-03-17T22:33:57.673Z,58.25
2023-03-17T22:36:26.483Z,58.58
2023-03-17T22:38:54.757Z,58.49
2023-03-17T22:41:25.464Z,58.41
2023-03-17T22:43:53.769Z,58.59
2023-03-17T22:46:22.167Z,58.49
2023-03-17T22:48:51.832Z,58.52
2023-03-17T22:51:23.551Z,58.28
2023-03-17T22:53:51.787Z,58.61
2023-03-17T22:56:19.765Z,58.52
2023-03-17T22:58:48.189Z,58.54
2023-03-17T23:01:17.544Z,58.42
2023-03-17T23:03:46.324Z,58.58
2023-03-17T23:06:14.949Z,58.63
2023-03-17T23:08:44.068Z,58.63
2023-03-17T23:11:18.344Z,58.35
2023-03-17T23:13:47.546Z,58.03
2023-03-17T23:16:16.245Z,58.34
2023-03-17T23:18:46.822Z,58.13
2023-03-17T23:21:22.333Z,58.63
2023-03-17T23:23:50.534Z,58.51
2023-03-17T23:26:18.528Z,58.54
2023-03-17T23:28:46.496Z,58.69
2023-03-17T23:31:16.754Z,58.53
2023-03-17T23:33:46.593Z,58.93
2023-03-17T23:36:16.048Z,58.45
2023-03-17T23:38:44.626Z,58.31
2023-03-17T23:41:14.433Z,58.45
2023-03-17T23:43:42.566Z,58.58
2023-03-17T23:46:11.409Z,58.66
2023-03-17T23:48:42.512Z,58.42
2023-03-17T23:51:12.505Z,58.45
2023-03-17T23:53:42.005Z,58.19
2023-03-17T23:56:11.401Z,58.27
2023-03-17T23:58:42.612Z,58.53
